Time;durP1;ratioP1;P1;durP2;ratioP2;P2;SDS_P1;SDS_P2;PMS_P1;PMS_P2;Temp;Humidity;BMP_temperature;BMP_pressure;BME280_temperature;BME280_humidity;BME280_pressure;Samples;Min_cycle;Max_cycle;Signal;HPM_P1;HPM_P2
2021/11/15 00:02:13;;;;;;;18.83;13.45;;;10.60;99.90;;;;;;5034750;28;20211;-72
2021/11/15 00:04:42;;;;;;;17.83;12.70;;;10.60;99.90;;;;;;5034581;28;20204;-70
2021/11/15 00:07:09;;;;;;;19.38;12.15;;;10.60;99.90;;;;;;5034767;28;20226;-70
2021/11/15 00:09:36;;;;;;;18.83;12.70;;;10.70;99.90;;;;;;5034746;28;20310;-71
2021/11/15 00:12:03;;;;;;;18.75;12.63;;;10.70;99.90;;;;;;5034656;28;20243;-70
2021/11/15 00:14:30;;;;;;;18.67;12.52;;;10.70;99.90;;;;;;5034653;28;20371;-70
2021/11/15 00:16:57;;;;;;;17.75;12.88;;;10.80;99.90;;;;;;5033902;28;20254;-70
2021/11/15 00:19:24;;;;;;;18.83;12.90;;;10.80;99.90;;;;;;5034310;28;20291;-71
2021/11/15 00:21:52;;;;;;;20.40;12.52;;;10.70;99.90;;;;;;5034305;28;20670;-70
2021/11/15 00:24:19;;;;;;;18.92;12.20;;;10.70;99.90;;;;;;5034598;28;20299;-71
2021/11/15 00:26:46;;;;;;;18.67;12.20;;;10.60;99.90;;;;;;5034186;28;20291;-72
2021/11/15 00:29:13;;;;;;;17.30;12.05;;;10.60;99.90;;;;;;5034219;28;20206;-71
2021/11/15 00:31:40;;;;;;;16.90;12.10;;;10.40;99.90;;;;;;5034338;28;20570;-70
2021/11/15 00:34:07;;;;;;;19.27;11.85;;;10.40;99.90;;;;;;5034629;28;20204;-71
2021/11/15 00:36:33;;;;;;;18.90;11.43;;;10.40;99.90;;;;;;5033997;28;20322;-69
2021/11/15 00:39:02;;;;;;;19.65;12.48;;;10.50;99.90;;;;;;5034237;28;20211;-71
2021/11/15 00:41:29;;;;;;;15.93;11.68;;;10.50;99.90;;;;;;5034065;28;20290;-70
2021/11/15 00:43:55;;;;;;;17.85;11.25;;;10.50;99.90;;;;;;5034244;28;20299;-70
2021/11/15 00:46:22;;;;;;;15.93;10.75;;;10.60;99.90;;;;;;5033950;28;20295;-71
2021/11/15 00:48:55;;;;;;;16.13;11.98;;;10.60;99.90;;;;;;5033904;28;20224;-71
2021/11/15 00:51:22;;;;;;;19.33;12.18;;;10.60;99.90;;;;;;5033793;28;20215;-71
2021/11/15 00:53:49;;;;;;;17.33;11.88;;;10.60;99.90;;;;;;5034052;28;20294;-73
2021/11/15 00:56:17;;;;;;;14.85;10.65;;;10.60;99.90;;;;;;5033410;28;20649;-72
2021/11/15 00:58:44;;;;;;;16.85;12.07;;;10.60;99.90;;;;;;5033504;28;20240;-71
2021/11/15 01:01:11;;;;;;;16.63;10.27;;;10.60;99.90;;;;;;5033770;28;20231;-73
2021/11/15 01:03:38;;;;;;;18.48;11.55;;;10.60;99.90;;;;;;5033945;28;20206;-72
2021/11/15 01:06:05;;;;;;;15.65;11.30;;;10.60;99.90;;;;;;5033261;28;20204;-71
2021/11/15 01:08:32;;;;;;;18.23;11.75;;;10.60;99.90;;;;;;5033438;28;20263;-69
2021/11/15 01:10:59;;;;;;;17.52;11.18;;;10.60;99.90;;;;;;5033461;28;20215;-71
2021/11/15 01:13:27;;;;;;;17.13;11.48;;;10.50;99.90;;;;;;5033220;28;20226;-71
2021/11/15 01:15:54;;;;;;;13.73;10.43;;;10.50;99.90;;;;;;5033169;28;20224;-72
2021/11/15 01:18:21;;;;;;;16.60;11.25;;;10.50;99.90;;;;;;5034130;28;20690;-71
2021/11/15 01:20:49;;;;;;;15.85;10.05;;;10.50;99.90;;;;;;5034774;28;20208;-71
2021/11/15 01:23:16;;;;;;;16.38;10.80;;;10.50;99.90;;;;;;5034651;28;20299;-71
2021/11/15 01:25:44;;;;;;;18.85;11.38;;;10.40;99.90;;;;;;5034205;28;20200;-71
2021/11/15 01:28:11;;;;;;;17.35;10.88;;;10.40;99.90;;;;;;5034595;28;20234;-72
2021/11/15 01:30:40;;;;;;;13.82;9.93;;;10.40;99.90;;;;;;5033808;28;20379;-71
2021/11/15 01:33:08;;;;;;;16.52;11.02;;;10.50;99.90;;;;;;5034547;28;20204;-71
2021/11/15 01:35:35;;;;;;;16.42;10.40;;;10.40;99.90;;;;;;5034038;28;20610;-71
2021/11/15 01:38:03;;;;;;;15.88;10.88;;;10.50;99.90;;;;;;5034304;28;20254;-70
2021/11/15 01:40:33;;;;;;;18.30;11.60;;;10.50;99.90;;;;;;5034616;28;20223;-72
2021/11/15 01:43:01;;;;;;;16.35;10.10;;;10.50;99.90;;;;;;5034334;28;20204;-71
2021/11/15 01:45:29;;;;;;;14.05;10.07;;;10.50;99.90;;;;;;5034133;28;20200;-71
2021/11/15 01:48:00;;;;;;;13.35;9.60;;;10.50;99.90;;;;;;5034177;28;20263;-70
2021/11/15 01:50:28;;;;;;;13.30;9.50;;;10.50;99.90;;;;;;5034342;28;20192;-71
2021/11/15 01:52:55;;;;;;;13.23;9.85;;;10.50;99.90;;;;;;5034051;28;20208;-71
2021/11/15 01:55:24;;;;;;;13.20;9.00;;;10.50;99.90;;;;;;5033910;28;20208;-71
2021/11/15 01:57:52;;;;;;;13.13;9.52;;;10.50;99.90;;;;;;5033808;28;20788;-70
2021/11/15 02:00:22;;;;;;;12.55;8.45;;;10.50;99.90;;;;;;5034077;28;20208;-71
2021/11/15 02:02:49;;;;;;;11.30;8.35;;;10.40;99.90;;;;;;5033985;28;20204;-71
2021/11/15 02:05:18;;;;;;;12.15;8.38;;;10.30;99.90;;;;;;5033588;28;20688;-71
2021/11/15 02:07:45;;;;;;;12.80;9.10;;;10.30;99.90;;;;;;5033606;28;20220;-70
2021/11/15 02:10:12;;;;;;;12.07;8.55;;;10.30;99.90;;;;;;5033695;28;20236;-71
2021/11/15 02:12:40;;;;;;;13.07;9.05;;;10.20;99.90;;;;;;5033532;28;20207;-71
2021/11/15 02:15:10;;;;;;;13.70;9.35;;;10.20;99.90;;;;;;5033596;28;20207;-71
2021/11/15 02:17:37;;;;;;;12.80;9.63;;;10.20;99.90;;;;;;5033852;28;20281;-71
2021/11/15 02:20:08;;;;;;;12.70;9.15;;;10.20;99.90;;;;;;5033731;28;20330;-71
2021/11/15 02:22:36;;;;;;;14.15;9.63;;;10.10;99.90;;;;;;5033638;28;20612;-70
2021/11/15 02:25:06;;;;;;;12.60;9.00;;;10.10;99.90;;;;;;5033281;28;20685;-70
2021/11/15 02:27:33;;;;;;;15.43;9.48;;;10.10;99.90;;;;;;5033762;28;20651;-71
2021/11/15 02:30:00;;;;;;;10.80;8.40;;;10.10;99.90;;;;;;5033637;28;20204;-70
2021/11/15 02:32:28;;;;;;;13.95;9.15;;;10.20;99.90;;;;;;5033563;28;20211;-71
2021/11/15 02:34:55;;;;;;;12.75;9.07;;;10.20;99.90;;;;;;5033450;28;20246;-71
2021/11/15 02:37:24;;;;;;;13.27;9.07;;;10.30;99.90;;;;;;5033590;28;20232;-70
2021/11/15 02:39:52;;;;;;;10.93;8.80;;;10.30;99.90;;;;;;5033683;28;20573;-70
2021/11/15 02:42:20;;;;;;;11.38;8.73;;;10.30;99.90;;;;;;5040117;28;20291;-70
2021/11/15 02:44:47;;;;;;;11.90;8.70;;;10.20;99.90;;;;;;5039891;28;20311;-70
2021/11/15 02:47:13;;;;;;;10.80;8.60;;;10.20;99.90;;;;;;5039808;28;20310;-70
2021/11/15 02:49:40;;;;;;;12.70;8.57;;;10.20;99.90;;;;;;5040046;28;20294;-70
2021/11/15 02:52:08;;;;;;;13.73;8.50;;;10.20;99.90;;;;;;5040054;28;20203;-70
2021/11/15 02:54:35;;;;;;;12.55;8.30;;;10.30;99.90;;;;;;5039773;28;20200;-70
2021/11/15 02:57:03;;;;;;;13.32;8.73;;;10.30;99.90;;;;;;5039766;28;20761;-70
2021/11/15 02:59:30;;;;;;;13.55;8.55;;;10.30;99.90;;;;;;5039946;28;20207;-70
2021/11/15 03:01:57;;;;;;;11.68;8.13;;;10.30;99.90;;;;;;5039700;28;20294;-70
2021/11/15 03:04:24;;;;;;;10.50;8.20;;;10.30;99.90;;;;;;5039757;28;20211;-70
2021/11/15 03:06:51;;;;;;;12.25;8.65;;;10.30;99.90;;;;;;5039630;28;20231;-70
2021/11/15 03:09:17;;;;;;;11.35;8.13;;;10.30;99.90;;;;;;5039940;28;20287;-70
2021/11/15 03:11:44;;;;;;;11.38;9.05;;;10.30;99.90;;;;;;5039832;28;20310;-70
2021/11/15 03:14:12;;;;;;;12.70;8.68;;;10.30;99.90;;;;;;5039772;28;20200;-71
2021/11/15 03:16:39;;;;;;;14.80;9.52;;;10.30;99.90;;;;;;5039459;28;20319;-70
2021/11/15 03:19:06;;;;;;;12.82;9.52;;;10.40;99.90;;;;;;5039855;28;20294;-70
2021/11/15 03:21:33;;;;;;;15.32;9.73;;;10.40;99.90;;;;;;5039617;28;20212;-71
2021/11/15 03:24:00;;;;;;;16.17;10.40;;;10.40;99.90;;;;;;5039657;28;20207;-70
2021/11/15 03:26:27;;;;;;;16.15;10.52;;;10.30;99.90;;;;;;5039788;28;20555;-70
2021/11/15 03:28:56;;;;;;;16.15;10.70;;;10.40;99.90;;;;;;5039601;28;20314;-70
2021/11/15 03:31:25;;;;;;;19.48;12.27;;;10.40;99.90;;;;;;5039672;28;20642;-71
2021/11/15 03:33:54;;;;;;;17.70;11.65;;;10.30;99.90;;;;;;5039654;28;20210;-71
2021/11/15 03:36:22;;;;;;;21.27;12.57;;;10.20;99.90;;;;;;5039401;28;20315;-71
2021/11/15 03:38:50;;;;;;;19.48;12.63;;;10.20;99.90;;;;;;5039619;28;20585;-70
2021/11/15 03:41:17;;;;;;;18.95;12.40;;;10.20;99.90;;;;;;5039329;28;20569;-70
2021/11/15 03:43:45;;;;;;;17.35;11.95;;;10.20;99.90;;;;;;5039574;28;20226;-70
2021/11/15 03:46:11;;;;;;;20.00;12.73;;;10.30;99.90;;;;;;5039353;28;20200;-71
2021/11/15 03:48:40;;;;;;;23.65;13.45;;;10.30;99.90;;;;;;5039358;28;20234;-71
2021/11/15 03:51:06;;;;;;;20.45;14.05;;;10.30;99.90;;;;;;5039388;28;20295;-71
2021/11/15 03:53:39;;;;;;;18.55;11.95;;;10.30;99.90;;;;;;5035707;28;20208;-71
2021/11/15 03:56:10;;;;;;;14.40;11.13;;;10.20;99.90;;;;;;5036107;28;20204;-71
2021/11/15 03:58:37;;;;;;;14.07;10.05;;;10.10;99.90;;;;;;5036028;28;20235;-70
2021/11/15 04:01:04;;;;;;;15.10;10.30;;;10.10;99.90;;;;;;5036352;28;20641;-70
2021/11/15 04:03:33;;;;;;;17.45;11.07;;;10.10;99.90;;;;;;5036111;28;20684;-70
2021/11/15 04:06:04;;;;;;;12.32;9.20;;;10.10;99.90;;;;;;5035850;28;20555;-70
2021/11/15 04:08:33;;;;;;;14.68;10.20;;;10.10;99.90;;;;;;5036315;28;20649;-70
2021/11/15 04:11:01;;;;;;;13.85;9.40;;;10.10;99.90;;;;;;5036342;28;20211;-70
2021/11/15 04:13:31;;;;;;;16.13;9.77;;;10.10;99.90;;;;;;5036066;28;20212;-70
2021/11/15 04:16:03;;;;;;;12.85;8.88;;;10.10;99.90;;;;;;5035611;28;20211;-71
2021/11/15 04:18:34;;;;;;;14.80;9.65;;;10.20;99.90;;;;;;5036398;28;20224;-70
2021/11/15 04:21:03;;;;;;;13.77;9.50;;;10.20;99.90;;;;;;5036220;28;20203;-70
2021/11/15 04:23:29;;;;;;;13.80;9.77;;;10.20;99.90;;;;;;5035866;28;20551;-70
2021/11/15 04:25:57;;;;;;;15.25;9.68;;;10.20;99.90;;;;;;5035659;28;20573;-70
2021/11/15 04:28:23;;;;;;;11.90;8.75;;;10.10;99.90;;;;;;5035735;28;20311;-70
2021/11/15 04:30:50;;;;;;;13.55;9.25;;;10.20;99.90;;;;;;5035759;28;20203;-70
2021/11/15 04:33:17;;;;;;;11.98;9.07;;;10.10;99.90;;;;;;5035614;28;20204;-70
2021/11/15 04:35:44;;;;;;;14.15;9.10;;;10.10;99.90;;;;;;5035433;28;20200;-70
2021/11/15 04:38:12;;;;;;;14.10;9.70;;;10.10;99.90;;;;;;5035571;28;20319;-71
2021/11/15 04:40:39;;;;;;;14.43;8.73;;;10.10;99.90;;;;;;5035533;28;20242;-71
2021/11/15 04:43:07;;;;;;;11.02;8.55;;;10.10;99.90;;;;;;5035498;28;20295;-71
2021/11/15 04:45:34;;;;;;;13.93;9.27;;;10.10;99.90;;;;;;5035110;28;20208;-70
2021/11/15 04:48:01;;;;;;;12.27;9.70;;;10.00;99.90;;;;;;5035393;28;20226;-71
2021/11/15 04:50:29;;;;;;;13.65;10.07;;;10.00;99.90;;;;;;5035375;28;20204;-71
2021/11/15 04:52:56;;;;;;;14.10;10.32;;;10.00;99.90;;;;;;5035300;28;20200;-71
2021/11/15 04:55:25;;;;;;;12.60;9.00;;;10.00;99.90;;;;;;5035137;28;20214;-71
2021/11/15 04:57:53;;;;;;;10.98;9.10;;;10.00;99.90;;;;;;5034928;28;20231;-70
2021/11/15 05:00:24;;;;;;;14.20;10.25;;;10.00;99.90;;;;;;5035391;28;20200;-70
2021/11/15 05:02:52;;;;;;;13.10;8.98;;;10.00;99.90;;;;;;5035129;28;20204;-71
2021/11/15 05:05:21;;;;;;;13.85;9.82;;;10.00;99.90;;;;;;5033691;28;20211;-71
2021/11/15 05:07:49;;;;;;;13.25;9.55;;;10.00;99.90;;;;;;5034937;28;20314;-70
2021/11/15 05:10:16;;;;;;;13.73;9.68;;;10.00;99.90;;;;;;5035043;28;20291;-70
2021/11/15 05:12:44;;;;;;;15.07;10.20;;;10.00;99.90;;;;;;5035088;28;20204;-71
2021/11/15 05:15:13;;;;;;;13.48;9.48;;;10.00;99.90;;;;;;5034448;28;20685;-70
2021/11/15 05:17:40;;;;;;;14.75;9.82;;;10.00;99.90;;;;;;5034485;28;20232;-71
2021/11/15 05:20:09;;;;;;;16.67;10.25;;;10.00;99.90;;;;;;5034767;28;20210;-70
2021/11/15 05:22:36;;;;;;;13.55;9.50;;;10.00;99.90;;;;;;5034743;28;20208;-70
2021/11/15 05:25:05;;;;;;;14.35;10.10;;;10.00;99.90;;;;;;5034619;28;20293;-70
2021/11/15 05:27:32;;;;;;;13.85;9.65;;;10.00;99.90;;;;;;5034513;28;20580;-71
2021/11/15 05:30:00;;;;;;;14.07;9.85;;;10.00;99.90;;;;;;5034626;28;20208;-70
2021/11/15 05:32:27;;;;;;;15.63;9.20;;;10.00;99.90;;;;;;5034602;28;20566;-71
2021/11/15 05:34:54;;;;;;;16.55;8.93;;;10.00;99.90;;;;;;5034150;28;20262;-70
2021/11/15 05:37:20;;;;;;;12.20;8.65;;;10.10;99.90;;;;;;5034252;28;20323;-70
2021/11/15 05:39:47;;;;;;;14.15;8.90;;;10.10;99.90;;;;;;5034448;28;20207;-72
2021/11/15 05:42:14;;;;;;;14.30;9.98;;;10.00;99.90;;;;;;5034206;28;20634;-71
2021/11/15 05:44:41;;;;;;;14.43;9.88;;;10.10;99.90;;;;;;5033887;28;20207;-72
2021/11/15 05:47:09;;;;;;;13.98;10.60;;;10.10;99.90;;;;;;5034085;28;20224;-72
2021/11/15 05:49:36;;;;;;;16.92;10.30;;;10.00;99.90;;;;;;5034352;28;20208;-70
2021/11/15 05:52:04;;;;;;;16.88;11.25;;;10.00;99.90;;;;;;5034184;28;20206;-70
2021/11/15 05:54:30;;;;;;;16.52;11.10;;;10.00;99.90;;;;;;5034060;28;20203;-70
2021/11/15 05:56:58;;;;;;;16.77;11.00;;;10.00;99.90;;;;;;5033972;28;20227;-71
2021/11/15 05:59:25;;;;;;;18.20;11.32;;;10.00;99.90;;;;;;5033840;28;20769;-71
2021/11/15 06:01:53;;;;;;;18.92;10.93;;;10.00;99.90;;;;;;5033911;28;20203;-71
2021/11/15 06:04:21;;;;;;;15.75;10.35;;;10.00;99.90;;;;;;5034127;28;20215;-70
2021/11/15 06:06:49;;;;;;;16.90;10.55;;;10.00;99.90;;;;;;5033865;28;20210;-71
2021/11/15 06:09:19;;;;;;;16.88;11.27;;;10.00;99.90;;;;;;5033635;28;20704;-71
2021/11/15 06:11:46;;;;;;;16.85;10.05;;;10.10;99.90;;;;;;5033872;28;20204;-71
2021/11/15 06:14:13;;;;;;;16.95;10.52;;;10.00;99.90;;;;;;5033597;28;20210;-71
2021/11/15 06:16:40;;;;;;;15.52;10.85;;;10.00;99.90;;;;;;5032858;28;20308;-70
2021/11/15 06:19:07;;;;;;;17.70;10.60;;;10.10;99.90;;;;;;5033822;28;20204;-70
2021/11/15 06:21:35;;;;;;;16.33;11.15;;;10.00;99.90;;;;;;5033656;28;20315;-71
2021/11/15 06:24:02;;;;;;;15.68;10.05;;;10.00;99.90;;;;;;5033721;28;20203;-70
2021/11/15 06:26:29;;;;;;;14.85;10.73;;;9.90;99.90;;;;;;5033306;28;20211;-70
2021/11/15 06:28:56;;;;;;;16.65;10.25;;;9.90;99.90;;;;;;5033613;28;20220;-70
2021/11/15 06:31:24;;;;;;;17.48;10.75;;;9.90;99.90;;;;;;5033645;28;20566;-70
2021/11/15 06:33:52;;;;;;;16.98;10.75;;;9.80;99.90;;;;;;5033572;28;20200;-71
2021/11/15 06:36:22;;;;;;;15.55;10.55;;;9.80;99.90;;;;;;5033224;28;20242;-70
2021/11/15 06:38:50;;;;;;;14.00;9.50;;;9.80;99.90;;;;;;5033236;28;20744;-71
2021/11/15 06:41:17;;;;;;;16.13;9.93;;;9.90;99.90;;;;;;5033513;28;20561;-71
2021/11/15 06:43:44;;;;;;;14.50;9.73;;;9.90;99.90;;;;;;5033368;28;20697;-71
2021/11/15 06:46:11;;;;;;;12.88;9.75;;;9.80;99.90;;;;;;5033420;28;20286;-70
2021/11/15 06:48:41;;;;;;;17.77;9.90;;;9.70;99.90;;;;;;5033369;28;20224;-70
2021/11/15 06:51:09;;;;;;;13.77;10.15;;;9.70;99.90;;;;;;5033465;28;20199;-71
2021/11/15 06:53:36;;;;;;;14.30;10.32;;;9.70;99.90;;;;;;5033645;28;20204;-71
2021/11/15 06:56:05;;;;;;;15.20;10.10;;;9.70;99.90;;;;;;5033216;28;20207;-71
2021/11/15 06:58:33;;;;;;;13.90;10.20;;;9.70;99.90;;;;;;5033006;28;20220;-71
2021/11/15 07:01:00;;;;;;;13.50;9.55;;;9.80;99.90;;;;;;5033510;28;20204;-71
2021/11/15 07:03:27;;;;;;;16.42;10.43;;;9.80;99.90;;;;;;5033374;28;20208;-71
2021/11/15 07:05:54;;;;;;;14.93;10.05;;;9.80;99.90;;;;;;5033306;28;20218;-71
2021/11/15 07:08:21;;;;;;;15.18;10.27;;;9.80;99.90;;;;;;5024174;28;20216;-71
2021/11/15 07:10:48;;;;;;;19.73;10.82;;;9.90;99.90;;;;;;5032177;28;20266;-71
2021/11/15 07:13:18;;;;;;;17.83;11.25;;;9.90;99.90;;;;;;5031930;28;20204;-70
2021/11/15 07:15:45;;;;;;;14.35;10.75;;;9.90;99.90;;;;;;5031493;28;20212;-70
2021/11/15 07:18:12;;;;;;;15.90;11.07;;;9.90;99.90;;;;;;5032130;28;20264;-70
2021/11/15 07:20:39;;;;;;;17.13;11.20;;;9.90;99.90;;;;;;5032007;28;20240;-70
2021/11/15 07:23:06;;;;;;;15.75;11.60;;;9.90;99.90;;;;;;5031470;28;20469;-69
2021/11/15 07:25:33;;;;;;;17.73;10.95;;;9.90;99.90;;;;;;5031742;28;20243;-69
2021/11/15 07:28:00;;;;;;;14.98;9.70;;;9.90;99.90;;;;;;5033653;28;20307;-75
2021/11/15 07:30:28;;;;;;;17.40;10.90;;;9.80;99.90;;;;;;5035538;28;20294;-69
2021/11/15 07:32:55;;;;;;;17.42;11.23;;;9.90;99.90;;;;;;5035741;28;20586;-74
2021/11/15 07:35:22;;;;;;;17.00;11.07;;;9.90;99.90;;;;;;5035622;28;20261;-72
2021/11/15 07:37:49;;;;;;;17.55;11.07;;;9.90;99.90;;;;;;5035533;28;20234;-69
2021/11/15 07:40:18;;;;;;;17.73;10.43;;;9.90;99.90;;;;;;5035244;28;20204;-70
2021/11/15 07:42:45;;;;;;;16.90;11.27;;;10.00;99.90;;;;;;5035162;28;20297;-69
2021/11/15 07:45:13;;;;;;;17.25;11.48;;;10.00;99.90;;;;;;5035390;28;20215;-69
2021/11/15 07:47:41;;;;;;;16.40;11.15;;;10.10;99.90;;;;;;5035531;28;20230;-68
2021/11/15 07:50:10;;;;;;;15.90;10.93;;;10.10;99.90;;;;;;5035303;28;20640;-72
2021/11/15 07:52:37;;;;;;;15.82;11.20;;;10.10;99.90;;;;;;5035184;28;20210;-70
2021/11/15 07:55:05;;;;;;;18.88;11.48;;;10.00;99.90;;;;;;5034985;28;20204;-70
2021/11/15 07:57:32;;;;;;;16.35;11.63;;;9.90;99.90;;;;;;5034812;28;20234;-71
2021/11/15 07:59:59;;;;;;;13.45;10.63;;;10.00;99.90;;;;;;5035255;28;20210;-71
2021/11/15 08:02:25;;;;;;;14.65;10.38;;;10.00;99.90;;;;;;5034698;28;20208;-71
2021/11/15 08:04:54;;;;;;;17.10;10.82;;;10.10;99.90;;;;;;5034635;28;20204;-70
2021/11/15 08:07:21;;;;;;;15.25;11.10;;;10.10;99.90;;;;;;5035934;28;20307;-70
2021/11/15 08:09:48;;;;;;;16.92;11.10;;;10.20;99.90;;;;;;5036147;28;20200;-69
2021/11/15 08:12:15;;;;;;;14.55;10.63;;;10.20;99.90;;;;;;5036029;28;20295;-70
2021/11/15 08:14:42;;;;;;;14.85;10.65;;;10.20;99.90;;;;;;5035795;28;20265;-70
2021/11/15 08:17:12;;;;;;;17.13;10.40;;;10.20;99.90;;;;;;5035656;28;20239;-70
2021/11/15 08:19:39;;;;;;;15.80;11.05;;;10.20;99.90;;;;;;5035619;28;20224;-70
2021/11/15 08:22:08;;;;;;;17.90;11.70;;;10.10;99.90;;;;;;5035842;28;20239;-69
2021/11/15 08:25:26;;;;;;;15.95;11.27;;;10.10;99.90;;;;;;5035631;28;20727;-70
2021/11/15 08:27:53;;;;;;;16.85;11.40;;;10.10;99.90;;;;;;5035408;28;20225;-70
2021/11/15 08:30:20;;;;;;;16.33;10.93;;;10.10;99.90;;;;;;5035781;28;20566;-70
2021/11/15 08:32:47;;;;;;;16.17;10.65;;;10.10;99.90;;;;;;5035635;28;20211;-69
2021/11/15 08:35:14;;;;;;;14.68;10.80;;;10.20;99.90;;;;;;5035207;28;20219;-70
2021/11/15 08:38:06;;;;;;;14.90;11.20;;;10.10;99.90;;;;;;5035480;28;20220;-70
2021/11/15 08:40:33;;;;;;;15.98;11.23;;;10.20;99.90;;;;;;5035539;28;20666;-70
2021/11/15 08:43:00;;;;;;;19.33;10.85;;;10.20;99.90;;;;;;5035487;28;20204;-70
2021/11/15 08:45:27;;;;;;;15.82;11.10;;;10.20;99.90;;;;;;5035146;28;20294;-70
2021/11/15 08:47:54;;;;;;;14.40;10.82;;;10.20;99.90;;;;;;5035115;28;20697;-69
2021/11/15 08:50:21;;;;;;;16.13;12.00;;;10.20;99.90;;;;;;5035567;28;20204;-69
2021/11/15 08:52:49;;;;;;;15.57;10.98;;;10.20;99.90;;;;;;5035395;28;20238;-70
2021/11/15 08:55:16;;;;;;;16.10;10.45;;;10.20;99.90;;;;;;5035057;28;20208;-70
2021/11/15 08:57:43;;;;;;;18.95;12.32;;;10.10;99.90;;;;;;5035364;28;20571;-69
2021/11/15 09:00:11;;;;;;;15.30;10.50;;;10.10;99.90;;;;;;5035402;28;20208;-70
2021/11/15 09:02:38;;;;;;;14.93;11.48;;;10.10;99.90;;;;;;5034855;28;20204;-69
2021/11/15 09:05:06;;;;;;;15.82;11.38;;;10.10;99.90;;;;;;5035113;28;20214;-70
2021/11/15 09:07:36;;;;;;;17.48;11.65;;;10.00;99.90;;;;;;5034964;28;20224;-70
2021/11/15 09:10:06;;;;;;;19.70;12.38;;;10.00;99.90;;;;;;5035136;28;20192;-70
2021/11/15 09:12:34;;;;;;;16.98;12.20;;;10.00;99.90;;;;;;5034967;28;20295;-70
2021/11/15 09:15:00;;;;;;;15.60;11.57;;;10.10;99.90;;;;;;5034774;28;20280;-70
2021/11/15 09:17:27;;;;;;;17.27;12.13;;;10.10;99.90;;;;;;5034818;28;20593;-69
2021/11/15 09:19:54;;;;;;;14.60;11.05;;;10.20;99.90;;;;;;5034711;28;20231;-69
2021/11/15 09:22:21;;;;;;;16.85;11.70;;;10.20;99.90;;;;;;5034756;28;20254;-69
2021/11/15 09:24:49;;;;;;;15.85;11.27;;;10.30;99.90;;;;;;5034715;28;20211;-70
2021/11/15 09:27:18;;;;;;;17.83;12.05;;;10.40;99.90;;;;;;5034730;28;20231;-70
2021/11/15 09:29:47;;;;;;;20.05;12.73;;;10.40;99.90;;;;;;5034445;28;20295;-69
2021/11/15 09:32:15;;;;;;;16.73;11.82;;;10.50;99.90;;;;;;5034459;28;20204;-69
2021/11/15 09:34:44;;;;;;;16.50;11.20;;;10.50;99.90;;;;;;5034349;28;20239;-70
2021/11/15 09:37:12;;;;;;;13.63;10.60;;;10.40;99.90;;;;;;5034336;28;20315;-70
2021/11/15 09:39:40;;;;;;;13.35;10.70;;;10.50;99.90;;;;;;5034344;28;20224;-70
2021/11/15 09:42:07;;;;;;;15.13;11.02;;;10.50;99.90;;;;;;5034400;28;20206;-70
2021/11/15 09:44:36;;;;;;;14.45;10.90;;;10.50;99.90;;;;;;5034251;28;20279;-71
2021/11/15 09:47:04;;;;;;;15.75;11.40;;;10.50;99.90;;;;;;5034217;28;20310;-70
2021/11/15 09:49:32;;;;;;;17.80;11.48;;;10.50;99.90;;;;;;5034045;28;20204;-70
2021/11/15 09:51:59;;;;;;;16.25;11.20;;;10.50;99.90;;;;;;5033805;28;20235;-70
2021/11/15 09:54:26;;;;;;;15.25;10.95;;;10.40;99.90;;;;;;5034013;28;20571;-70
2021/11/15 09:56:54;;;;;;;16.02;11.63;;;10.40;99.90;;;;;;5034035;28;20207;-70
2021/11/15 09:59:24;;;;;;;17.85;12.00;;;10.40;99.90;;;;;;5034102;28;20230;-69
2021/11/15 10:01:54;;;;;;;14.85;11.65;;;10.40;99.90;;;;;;5034351;28;20258;-70
2021/11/15 10:04:22;;;;;;;16.20;12.13;;;10.40;99.90;;;;;;5034732;28;20200;-71
2021/11/15 10:06:52;;;;;;;17.15;11.90;;;10.40;99.90;;;;;;5033826;28;20204;-69
2021/11/15 10:09:26;;;;;;;16.80;11.70;;;10.40;99.90;;;;;;5033725;28;20628;-69
2021/11/15 10:11:53;;;;;;;16.02;11.70;;;10.40;99.90;;;;;;5034201;28;20298;-70
2021/11/15 10:14:20;;;;;;;17.15;11.55;;;10.40;99.90;;;;;;5033874;28;20200;-70
2021/11/15 10:16:52;;;;;;;15.65;11.20;;;10.40;99.90;;;;;;5033604;28;20216;-70
2021/11/15 10:19:22;;;;;;;17.63;12.45;;;10.40;99.90;;;;;;5033796;28;20657;-70
2021/11/15 10:21:51;;;;;;;20.25;13.88;;;10.50;99.90;;;;;;5033968;28;20204;-70
2021/11/15 10:24:22;;;;;;;21.90;15.60;;;10.50;99.90;;;;;;5033730;28;20210;-70
2021/11/15 10:26:53;;;;;;;18.02;14.32;;;10.30;99.90;;;;;;5033641;28;20211;-69
2021/11/15 10:29:23;;;;;;;15.93;11.82;;;10.30;99.90;;;;;;5033460;28;20630;-69
2021/11/15 10:31:53;;;;;;;16.55;12.82;;;10.20;99.90;;;;;;5033664;28;20757;-70
2021/11/15 10:34:24;;;;;;;19.02;12.80;;;10.30;99.90;;;;;;5033591;28;20203;-71
2021/11/15 10:36:55;;;;;;;19.27;13.70;;;10.30;99.90;;;;;;5033572;28;20291;-70
2021/11/15 10:39:28;;;;;;;19.17;12.68;;;10.30;99.90;;;;;;5033843;28;20208;-69
2021/11/15 10:42:07;;;;;;;18.40;13.07;;;10.20;99.90;;;;;;5033611;28;20204;-69
2021/11/15 10:44:36;;;;;;;17.65;12.40;;;10.30;99.90;;;;;;5033357;28;20273;-69
2021/11/15 10:47:05;;;;;;;16.48;12.02;;;10.40;99.90;;;;;;5033414;28;20230;-70
2021/11/15 10:49:33;;;;;;;18.33;12.57;;;10.30;99.90;;;;;;5033497;28;20238;-70
2021/11/15 10:52:02;;;;;;;17.35;12.93;;;10.40;99.90;;;;;;5033489;28;20257;-70
2021/11/15 10:54:45;;;;;;;15.38;12.18;;;10.40;99.90;;;;;;5033225;28;20204;-70
2021/11/15 10:57:22;;;;;;;15.77;12.43;;;10.40;99.90;;;;;;5033190;28;20803;-69
2021/11/15 11:00:12;;;;;;;18.88;13.27;;;10.50;99.90;;;;;;5033302;28;20393;-70
2021/11/15 11:02:42;;;;;;;18.65;12.80;;;10.50;99.90;;;;;;5036421;28;20231;-70
2021/11/15 11:05:11;;;;;;;19.20;12.68;;;10.50;99.90;;;;;;5037296;28;20297;-70
2021/11/15 11:07:39;;;;;;;17.98;12.70;;;10.50;99.90;;;;;;5037297;28;20220;-70
2021/11/15 11:10:08;;;;;;;18.58;13.05;;;10.50;99.90;;;;;;5037240;28;20291;-69
2021/11/15 11:12:40;;;;;;;18.02;12.95;;;10.50;99.90;;;;;;5037259;28;20204;-69
2021/11/15 11:15:29;;;;;;;17.23;12.38;;;10.50;99.90;;;;;;5036966;28;20559;-70
2021/11/15 11:18:00;;;;;;;15.95;12.73;;;10.50;99.90;;;;;;5037120;28;20228;-70
2021/11/15 11:20:33;;;;;;;19.25;14.25;;;10.50;99.90;;;;;;5037058;28;20588;-70
2021/11/15 11:23:20;;;;;;;19.75;15.55;;;10.60;99.90;;;;;;5036922;28;20204;-70
2021/11/15 11:25:46;;;;;;;20.85;14.55;;;10.60;99.90;;;;;;5036763;28;20203;-70
2021/11/15 11:28:32;;;;;;;20.50;15.63;;;10.60;99.90;;;;;;5036914;28;20233;-69
2021/11/15 11:31:01;;;;;;;23.67;16.20;;;10.70;99.90;;;;;;5036903;28;20295;-69
2021/11/15 11:33:31;;;;;;;24.92;14.45;;;10.70;99.90;;;;;;5036802;28;20210;-69
2021/11/15 11:35:58;;;;;;;19.70;15.00;;;10.70;99.90;;;;;;5036403;28;20227;-69
2021/11/15 11:38:25;;;;;;;20.20;15.32;;;10.80;99.90;;;;;;5036286;28;20225;-69
2021/11/15 11:40:54;;;;;;;20.45;14.55;;;10.80;99.90;;;;;;5036689;28;20299;-69
2021/11/15 11:43:22;;;;;;;19.30;14.23;;;10.70;99.90;;;;;;5036544;28;20666;-69
2021/11/15 11:45:49;;;;;;;19.55;14.20;;;10.80;99.90;;;;;;5036456;28;20207;-69
2021/11/15 11:48:17;;;;;;;20.60;15.27;;;10.70;99.90;;;;;;5036690;28;20654;-69
2021/11/15 11:50:46;;;;;;;20.60;14.23;;;10.80;99.90;;;;;;5036789;28;20206;-69
2021/11/15 11:53:19;;;;;;;20.20;15.00;;;10.70;99.90;;;;;;5036248;28;20299;-70
2021/11/15 11:55:46;;;;;;;19.73;15.00;;;10.60;99.90;;;;;;5036294;28;20218;-70
2021/11/15 11:58:20;;;;;;;18.48;13.77;;;10.60;99.90;;;;;;5036444;28;20254;-70
2021/11/15 12:00:48;;;;;;;19.73;13.82;;;10.70;99.90;;;;;;5036249;28;20234;-69
2021/11/15 12:03:17;;;;;;;19.60;14.73;;;10.80;99.90;;;;;;5036197;28;20299;-70
2021/11/15 12:05:45;;;;;;;17.85;14.00;;;10.80;99.90;;;;;;5036085;28;20214;-69
2021/11/15 12:08:12;;;;;;;24.25;14.90;;;10.70;99.90;;;;;;5036219;28;20555;-69
2021/11/15 12:10:43;;;;;;;20.33;14.57;;;10.70;99.90;;;;;;5036153;28;20604;-69
2021/11/15 12:13:12;;;;;;;23.98;15.95;;;10.70;99.90;;;;;;5035337;28;20208;-70
2021/11/15 12:15:42;;;;;;;22.17;15.38;;;10.60;99.90;;;;;;5035528;28;20215;-71
2021/11/15 12:18:12;;;;;;;21.85;14.80;;;10.50;99.90;;;;;;5035890;28;20230;-70
2021/11/15 12:21:11;;;;;;;20.42;14.63;;;10.50;99.90;;;;;;5035683;28;20323;-70
2021/11/15 12:23:40;;;;;;;21.00;14.65;;;10.50;99.90;;;;;;5035800;28;20672;-70
2021/11/15 12:26:09;;;;;;;21.02;15.18;;;10.50;99.90;;;;;;5035349;28;20204;-70
2021/11/15 12:28:38;;;;;;;19.70;14.13;;;10.50;99.90;;;;;;5035732;28;20256;-70
2021/11/15 12:31:07;;;;;;;23.40;14.82;;;10.50;99.90;;;;;;5035813;28;20211;-69
2021/11/15 12:33:35;;;;;;;21.48;14.73;;;10.50;99.90;;;;;;5035728;28;20246;-69
2021/11/15 12:36:08;;;;;;;23.33;16.48;;;10.50;99.90;;;;;;5035510;28;20204;-69
2021/11/15 12:38:46;;;;;;;22.58;16.45;;;10.40;99.90;;;;;;5035605;28;20578;-69